Myrtle Beach, SC (29587)

8:53 AM EDT on October 31, 2014 (GMT -0400)
Oceanside Village | Change Station
CLOSE
Current Station
Personal Weather Station
Location: Surfside Beach, SC
Elevation: 3 ft
Nearby Weather Stations

Elev 3 ft 33.60 °N, 78.99 °W | Updated 48 seconds ago

Partly Cloudy
Partly Cloudy
56.1 °F
Feels Like 56.1 °F
N
0.0
Wind Variable Wind from North
Gusts 0.0 mph

Today
High -- | Low -- °F
--% Chance of Precip.
Yesterday
High -- | Low -- °F
Precip. -- in
7:33 AM 6:24 PM
First Quarter, 55% visible
Pressure 29.91 in
Visibility 8.0 miles
Clouds Scattered Clouds 7000 ft
Dew Point 46 °F
Humidity 68%
Rainfall 0.00 in
Snow Depth Not available.
UV 1 out of 12
Pollen 3.10 out of 12
Air Quality Not available.
Flu Activity Not available.
METAR KMYR 311245Z 03009KT 8SM SCT070 12/08 A2991

More Conditions Fewer Conditions

Pressure 29.91 in
Visibility 8.0 miles
Clouds Scattered Clouds 7000 ft
Dew Point 46 °F
Humidity 68%
Rainfall 0.00 in
Snow Depth Not available.
UV 1 out of 12
Pollen 3.10 out of 12
Air Quality Not available.
Flu Activity Not available.
METAR KMYR 311245Z 03009KT 8SM SCT070 12/08 A2991

More Conditions Fewer Conditions

10-Day Weather Forecast

Almanac

Astronomy

Oct. 31, 2014 Rise Set
Actual Time
Civil Twilight
Nautical Twilight
Astronomical Twilight
Moon
Length of Visible Light
Length of Day
Tomorrow will be .
, % of the Moon is Illuminated

Today's Extremes

State Highs State Lows

Community

WunderPhotos

Upload Photos

1,766,593 photos uploaded!

WunderBlogs® & News

Nearby

Air Quality

  Air Quality AQ Index Pollutant
Not available.

Snow Depth

Station Depth Elevation

Earthquake Activity

City Distance Mag. Time & Date
Minimum magnitude displayed is 2.5.

Coastal Water Temperatures

Place Temperature

Nearby Weather Stations